createdAt,value
2018-09-04T00:02:13.030Z,15.61
2018-09-04T00:13:15.294Z,15.61
2018-09-04T00:24:15.256Z,15.61
2018-09-04T00:35:17.318Z,15.61
2018-09-04T00:46:19.807Z,15.51
2018-09-04T00:57:21.682Z,15.52
2018-09-04T01:08:24.646Z,15.51
2018-09-04T01:19:25.868Z,15.42
2018-09-04T01:30:27.969Z,15.42
2018-09-04T01:41:26.392Z,15.42
2018-09-04T01:52:28.760Z,15.42
2018-09-04T02:03:31.083Z,15.32
2018-09-04T02:14:33.226Z,15.32
2018-09-04T02:25:31.104Z,15.32
2018-09-04T02:36:31.613Z,15.22
2018-09-04T02:47:33.930Z,15.12
2018-09-04T02:58:36.893Z,15.12
2018-09-04T03:09:40.284Z,15.42
2018-09-04T03:20:42.768Z,15.61
2018-09-04T03:31:44.916Z,15.42
2018-09-04T03:42:47.165Z,15.51
2018-09-04T03:53:49.335Z,15.81
2018-09-04T04:04:51.603Z,15.81
2018-09-04T04:15:54.158Z,16.00
2018-09-04T04:26:56.615Z,15.71
2018-09-04T04:37:58.943Z,16.00
2018-09-04T04:49:01.988Z,16.10
2018-09-04T05:00:04.412Z,16.10
2018-09-04T05:11:07.041Z,16.10
2018-09-04T05:22:09.541Z,16.20
2018-09-04T05:33:11.317Z,16.30
2018-09-04T05:44:13.193Z,16.10
2018-09-04T05:55:14.290Z,16.10
2018-09-04T06:06:17.634Z,16.20
2018-09-04T06:17:19.957Z,16.10
2018-09-04T06:28:23.103Z,16.40
2018-09-04T06:39:25.970Z,16.69
2018-09-04T06:50:27.937Z,17.08
2018-09-04T07:01:27.699Z,17.18
2018-09-04T07:12:22.597Z,17.18
2018-09-04T07:23:24.901Z,17.18
2018-09-04T07:34:20.097Z,17.37
2018-09-04T07:45:21.139Z,17.57
2018-09-04T07:56:23.076Z,17.57
2018-09-04T08:07:24.980Z,17.86
2018-09-04T08:18:20.920Z,18.15
2018-09-04T08:29:18.673Z,18.45
2018-09-04T08:40:20.597Z,18.55
2018-09-04T08:51:21.315Z,18.84
2018-09-04T09:02:22.181Z,19.04
2018-09-04T09:13:24.811Z,19.04
2018-09-04T09:24:26.004Z,18.55
2018-09-04T09:35:27.585Z,18.55
2018-09-04T09:46:31.215Z,18.74
2018-09-04T09:57:32.800Z,19.23
2018-09-04T10:08:33.571Z,19.33
2018-09-04T10:19:33.575Z,19.82
2018-09-04T10:30:35.974Z,20.11
2018-09-04T10:41:37.644Z,20.21
2018-09-04T10:52:39.409Z,20.50
2018-09-04T11:03:41.423Z,20.80
2018-09-04T11:14:41.954Z,20.89
2018-09-04T11:25:43.293Z,20.99
2018-09-04T11:36:44.032Z,20.60
2018-09-04T11:47:45.976Z,20.70
2018-09-04T11:58:46.277Z,21.28
2018-09-04T12:09:47.793Z,21.58
2018-09-04T12:20:43.565Z,21.38
2018-09-04T12:31:44.978Z,21.87
2018-09-04T12:42:46.724Z,21.97
2018-09-04T12:53:49.854Z,22.56
2018-09-04T13:04:51.541Z,22.56
2018-09-04T13:15:54.143Z,23.14
2018-09-04T13:26:57.193Z,23.92
2018-09-04T13:37:53.198Z,23.53
2018-09-04T13:48:53.321Z,25.19
2018-09-04T13:59:54.127Z,24.61
2018-09-04T14:10:53.479Z,23.05
2018-09-04T14:21:53.755Z,23.05
2018-09-04T14:32:56.140Z,22.95
2018-09-04T14:43:55.158Z,22.56
2018-09-04T14:54:57.609Z,23.34
2018-09-04T15:05:57.934Z,22.85
2018-09-04T15:16:57.587Z,22.07
2018-09-04T15:27:57.239Z,21.58
2018-09-04T15:38:59.066Z,21.48
2018-09-04T15:49:59.915Z,21.19
2018-09-04T16:01:00.508Z,20.79
2018-09-04T16:11:55.060Z,20.50
2018-09-04T16:22:55.491Z,20.21
2018-09-04T16:33:56.020Z,19.92
2018-09-04T16:44:51.695Z,19.72
2018-09-04T16:55:48.941Z,19.23
2018-09-04T17:06:49.148Z,19.03
2018-09-04T17:17:50.650Z,18.94
2018-09-04T17:28:52.498Z,18.74
2018-09-04T17:39:54.296Z,18.55
2018-09-04T17:50:54.810Z,18.35
2018-09-04T18:01:55.737Z,18.16
2018-09-04T18:12:54.823Z,18.06
2018-09-04T18:23:54.469Z,17.96
2018-09-04T18:34:56.786Z,17.86
2018-09-04T18:45:58.592Z,18.06
2018-09-04T18:57:00.731Z,18.16
2018-09-04T19:07:54.004Z,17.96
2018-09-04T19:18:55.665Z,17.96
2018-09-04T19:29:57.817Z,17.76
2018-09-04T19:40:58.856Z,17.47
2018-09-04T19:52:00.474Z,17.27
2018-09-04T20:02:56.072Z,17.27
2018-09-04T20:13:56.045Z,16.98
2018-09-04T20:24:48.386Z,17.18
2018-09-04T20:35:37.823Z,17.28
2018-09-04T20:46:31.094Z,17.18
2018-09-04T20:57:32.050Z,17.27
2018-09-04T21:08:28.979Z,17.47
2018-09-04T21:19:28.308Z,17.37
2018-09-04T21:30:26.892Z,17.47
2018-09-04T21:41:26.889Z,17.47
2018-09-04T21:52:29.436Z,17.47
2018-09-04T22:03:31.252Z,17.37
2018-09-04T22:14:33.689Z,17.08
2018-09-04T22:25:35.719Z,17.18
2018-09-04T22:36:37.314Z,16.98
2018-09-04T22:47:38.424Z,16.88
2018-09-04T22:58:37.784Z,16.78
2018-09-04T23:09:40.284Z,16.69
2018-09-04T23:20:42.153Z,16.49
2018-09-04T23:31:43.668Z,16.59
2018-09-04T23:42:45.259Z,16.39
2018-09-04T23:53:47.768Z,16.49
